Time;durP1;ratioP1;P1;durP2;ratioP2;P2;SDS_P1;SDS_P2;PMS_P1;PMS_P2;Temp;Humidity;BMP_temperature;BMP_pressure;BME280_temperature;BME280_humidity;BME280_pressure;Samples;Min_cycle;Max_cycle;Signal;HPM_P1;HPM_P2
2021/12/03 00:00:51;;;;;;;6.47;3.33;;;1.20;99.90;;;;;;5093098;28;20024;-63
2021/12/03 00:03:17;;;;;;;7.18;3.03;;;1.20;99.90;;;;;;5075147;28;20024;-63
2021/12/03 00:05:43;;;;;;;8.68;4.20;;;1.10;99.90;;;;;;5074619;28;20553;-63
2021/12/03 00:08:09;;;;;;;6.22;3.13;;;1.10;99.90;;;;;;5092970;28;20024;-63
2021/12/03 00:10:36;;;;;;;7.65;3.45;;;1.10;99.90;;;;;;5093024;28;20027;-63
2021/12/03 00:13:04;;;;;;;7.05;3.55;;;1.10;99.90;;;;;;5092798;28;20118;-63
2021/12/03 00:15:30;;;;;;;8.27;3.80;;;1.00;99.90;;;;;;5092567;28;20122;-63
2021/12/03 00:17:56;;;;;;;7.75;4.15;;;1.00;99.90;;;;;;5092395;28;20052;-63
2021/12/03 00:20:24;;;;;;;5.80;3.60;;;1.00;99.90;;;;;;5092886;28;20060;-63
2021/12/03 00:22:53;;;;;;;11.48;3.75;;;1.00;99.90;;;;;;5074741;28;20020;-63
2021/12/03 00:25:19;;;;;;;4.70;2.90;;;0.90;99.90;;;;;;5092716;28;20084;-63
2021/12/03 00:27:45;;;;;;;4.38;2.80;;;0.90;99.90;;;;;;5092587;28;20099;-63
2021/12/03 00:30:12;;;;;;;5.78;3.28;;;0.90;99.90;;;;;;5092811;28;20028;-63
2021/12/03 00:32:39;;;;;;;5.38;2.78;;;1.00;99.90;;;;;;5074715;28;20024;-63
2021/12/03 00:35:08;;;;;;;5.70;2.53;;;1.00;99.90;;;;;;5092432;28;20502;-63
2021/12/03 00:37:33;;;;;;;3.45;2.30;;;1.10;99.90;;;;;;5074561;28;20025;-63
2021/12/03 00:39:59;;;;;;;4.30;2.40;;;1.10;99.90;;;;;;5074683;28;20020;-63
2021/12/03 00:42:27;;;;;;;4.55;2.80;;;1.10;99.90;;;;;;5092683;28;20031;-63
2021/12/03 00:44:55;;;;;;;6.90;3.10;;;1.10;99.90;;;;;;5092546;28;20069;-63
2021/12/03 00:47:22;;;;;;;5.40;2.72;;;1.10;99.90;;;;;;5092716;28;20054;-63
2021/12/03 00:49:48;;;;;;;6.43;3.70;;;1.20;99.90;;;;;;5092451;28;20054;-63
2021/12/03 00:52:13;;;;;;;9.02;4.20;;;1.10;99.90;;;;;;5092689;28;20024;-63
2021/12/03 00:54:39;;;;;;;5.78;4.05;;;1.10;99.90;;;;;;5092496;28;20476;-63
2021/12/03 00:57:05;;;;;;;6.47;3.97;;;1.20;99.90;;;;;;5074196;28;20123;-63
2021/12/03 00:59:31;;;;;;;7.40;4.65;;;1.20;99.90;;;;;;5092664;28;20055;-63
2021/12/03 01:01:57;;;;;;;7.70;4.18;;;1.10;99.90;;;;;;5074173;28;20550;-63
2021/12/03 01:04:22;;;;;;;7.65;4.57;;;1.10;99.90;;;;;;5074175;28;20044;-63
2021/12/03 01:06:48;;;;;;;6.68;4.25;;;1.20;99.90;;;;;;5074284;28;20361;-63
2021/12/03 01:09:14;;;;;;;8.30;5.75;;;1.20;99.90;;;;;;5092456;28;20036;-63
2021/12/03 01:11:40;;;;;;;7.00;4.38;;;1.20;99.90;;;;;;5092382;28;20024;-64
2021/12/03 01:14:06;;;;;;;7.32;4.25;;;1.20;99.90;;;;;;5092649;28;20032;-63
2021/12/03 01:16:32;;;;;;;6.50;3.63;;;1.20;99.90;;;;;;5092338;28;20033;-63
2021/12/03 01:18:58;;;;;;;8.10;4.43;;;1.20;99.90;;;;;;5092086;28;20105;-63
2021/12/03 01:21:25;;;;;;;7.93;5.10;;;1.20;99.90;;;;;;5092408;28;20052;-63
2021/12/03 01:23:52;;;;;;;7.30;4.63;;;1.20;99.90;;;;;;5074001;28;20024;-64
2021/12/03 01:26:19;;;;;;;8.10;4.95;;;1.20;99.90;;;;;;5074218;28;20024;-63
2021/12/03 01:28:45;;;;;;;7.70;4.82;;;1.20;99.90;;;;;;5094916;28;20028;-63
2021/12/03 01:31:12;;;;;;;7.22;4.65;;;1.20;99.90;;;;;;5095925;28;20032;-64
2021/12/03 01:33:39;;;;;;;7.10;4.65;;;1.20;99.90;;;;;;5095811;28;20070;-64
2021/12/03 01:36:05;;;;;;;8.90;5.20;;;1.20;99.90;;;;;;5077501;28;20035;-64
2021/12/03 01:38:30;;;;;;;6.32;4.57;;;1.20;99.90;;;;;;5095903;28;20545;-64
2021/12/03 01:40:56;;;;;;;6.97;4.70;;;1.20;99.90;;;;;;5095771;28;20024;-63
2021/12/03 01:43:24;;;;;;;10.68;6.20;;;1.20;99.90;;;;;;5077491;28;20016;-63
2021/12/03 01:45:53;;;;;;;8.45;5.70;;;1.20;99.90;;;;;;5077366;28;20373;-63
2021/12/03 01:48:19;;;;;;;7.32;4.60;;;1.20;99.90;;;;;;5095689;28;20024;-63
2021/12/03 01:50:47;;;;;;;8.65;5.15;;;1.10;99.90;;;;;;5095526;28;20046;-64
2021/12/03 01:53:15;;;;;;;8.63;4.68;;;1.10;99.90;;;;;;5077471;28;20080;-63
2021/12/03 01:55:43;;;;;;;6.80;4.82;;;1.10;99.90;;;;;;5095346;28;20028;-63
2021/12/03 01:58:10;;;;;;;12.43;6.45;;;1.10;99.90;;;;;;5095471;28;20020;-63
2021/12/03 02:00:58;;;;;;;12.38;6.38;;;1.10;99.90;;;;;;5095153;28;20073;-64
2021/12/03 02:03:28;;;;;;;10.05;5.45;;;1.10;99.90;;;;;;5095332;28;20024;-64
2021/12/03 02:05:54;;;;;;;10.80;6.15;;;1.10;99.90;;;;;;5077128;28;20043;-64
2021/12/03 02:08:20;;;;;;;8.40;5.53;;;1.10;99.90;;;;;;5095684;28;20111;-64
2021/12/03 02:10:47;;;;;;;8.40;5.72;;;1.10;99.90;;;;;;5076995;28;20063;-64
2021/12/03 02:13:14;;;;;;;9.68;6.25;;;1.10;99.90;;;;;;5095094;28;20492;-64
2021/12/03 02:15:41;;;;;;;7.85;5.93;;;1.10;99.90;;;;;;5094874;28;20042;-63
2021/12/03 02:18:09;;;;;;;9.18;6.13;;;1.20;99.90;;;;;;5094914;28;20016;-64
2021/12/03 02:20:47;;;;;;;8.80;6.38;;;1.10;99.90;;;;;;5076934;28;20042;-64
2021/12/03 02:23:14;;;;;;;10.65;6.90;;;1.20;99.90;;;;;;5094975;28;20081;-64
2021/12/03 02:25:40;;;;;;;12.48;7.72;;;1.20;99.90;;;;;;5094808;28;20079;-64
2021/12/03 02:28:06;;;;;;;12.32;6.78;;;1.20;99.90;;;;;;5076693;28;20438;-63
2021/12/03 02:30:31;;;;;;;10.65;6.95;;;1.20;99.90;;;;;;5076622;28;20032;-64
2021/12/03 02:32:57;;;;;;;12.88;7.15;;;1.30;99.90;;;;;;5094627;28;20028;-64
2021/12/03 02:35:23;;;;;;;11.13;6.60;;;1.30;99.90;;;;;;5094623;28;20028;-64
2021/12/03 02:37:50;;;;;;;15.18;7.57;;;1.30;99.90;;;;;;5094686;28;20496;-64
2021/12/03 02:40:17;;;;;;;9.38;7.25;;;1.30;99.90;;;;;;5075526;28;20031;-64
2021/12/03 02:42:43;;;;;;;14.63;9.32;;;1.30;99.90;;;;;;5094460;28;20024;-64
2021/12/03 02:45:11;;;;;;;14.55;9.15;;;1.30;99.90;;;;;;5076203;28;20059;-64
2021/12/03 02:47:36;;;;;;;13.20;9.63;;;1.30;99.90;;;;;;5094248;28;20457;-64
2021/12/03 02:50:04;;;;;;;12.43;9.38;;;1.30;99.90;;;;;;5094549;28;20102;-64
2021/12/03 02:52:30;;;;;;;14.23;9.65;;;1.30;99.90;;;;;;5076228;28;20067;-64
2021/12/03 02:54:55;;;;;;;14.45;9.07;;;1.30;99.90;;;;;;5076172;28;20527;-64
2021/12/03 02:57:21;;;;;;;13.23;9.07;;;1.30;99.90;;;;;;5094373;28;20020;-64
2021/12/03 02:59:46;;;;;;;17.38;10.02;;;1.40;99.90;;;;;;5094041;28;20030;-64
2021/12/03 03:02:12;;;;;;;16.45;10.15;;;1.30;99.90;;;;;;5075402;28;20020;-64
2021/12/03 03:04:38;;;;;;;19.75;11.15;;;1.40;99.90;;;;;;5073534;28;20045;-64
2021/12/03 03:07:04;;;;;;;19.40;11.52;;;1.40;99.90;;;;;;5073801;28;20385;-64
2021/12/03 03:09:31;;;;;;;22.17;12.40;;;1.40;99.90;;;;;;5092933;28;20490;-64
2021/12/03 03:11:57;;;;;;;20.02;13.35;;;1.40;99.90;;;;;;5094025;28;20385;-64
2021/12/03 03:14:23;;;;;;;19.08;12.60;;;1.40;99.90;;;;;;5075632;28;20031;-64
2021/12/03 03:16:50;;;;;;;23.50;15.27;;;1.40;99.90;;;;;;5075520;28;20031;-64
2021/12/03 03:19:18;;;;;;;25.73;15.38;;;1.40;99.90;;;;;;5093851;28;20035;-64
2021/12/03 03:21:45;;;;;;;23.33;16.75;;;1.40;99.90;;;;;;5093566;28;20020;-64
2021/12/03 03:24:11;;;;;;;28.55;17.80;;;1.40;99.90;;;;;;5093812;28;20022;-64
2021/12/03 03:26:39;;;;;;;30.75;20.27;;;1.50;99.90;;;;;;5093746;28;20020;-64
2021/12/03 03:29:06;;;;;;;32.50;21.17;;;1.50;99.90;;;;;;5075452;28;20024;-64
2021/12/03 03:31:33;;;;;;;33.08;21.90;;;1.50;99.90;;;;;;5093471;28;20032;-64
2021/12/03 03:33:59;;;;;;;33.05;21.27;;;1.50;99.90;;;;;;5075475;28;20020;-64
2021/12/03 03:36:25;;;;;;;32.95;22.05;;;1.50;99.90;;;;;;5093355;28;20020;-64
2021/12/03 03:38:51;;;;;;;43.30;24.38;;;1.50;99.90;;;;;;5093434;28;20024;-64
2021/12/03 03:41:16;;;;;;;37.83;24.63;;;1.50;99.90;;;;;;5093512;28;20026;-64
2021/12/03 03:43:42;;;;;;;41.50;24.23;;;1.50;99.90;;;;;;5093409;28;20023;-64
2021/12/03 03:46:08;;;;;;;44.63;26.15;;;1.50;99.90;;;;;;5074628;28;20035;-64
2021/12/03 03:48:33;;;;;;;43.45;26.20;;;1.50;99.90;;;;;;5054973;28;20025;-64
2021/12/03 03:50:59;;;;;;;45.13;26.27;;;1.50;99.90;;;;;;5073051;28;20101;-64
2021/12/03 03:53:26;;;;;;;50.33;27.55;;;1.50;99.90;;;;;;5073031;28;20148;-64
2021/12/03 03:55:52;;;;;;;45.67;27.33;;;1.50;99.90;;;;;;5072878;28;20032;-64
2021/12/03 03:58:18;;;;;;;51.40;28.13;;;1.50;99.90;;;;;;5073074;28;20028;-64
2021/12/03 04:00:45;;;;;;;55.25;30.77;;;1.50;99.90;;;;;;5072871;28;20077;-64
2021/12/03 04:03:11;;;;;;;63.83;31.50;;;1.50;99.90;;;;;;5072788;28;20142;-64
2021/12/03 04:05:37;;;;;;;60.30;32.10;;;1.50;99.90;;;;;;5054681;28;20083;-64
2021/12/03 04:08:03;;;;;;;60.33;31.83;;;1.50;99.90;;;;;;5054886;28;20484;-64
2021/12/03 04:10:29;;;;;;;63.30;33.28;;;1.50;99.90;;;;;;5072736;28;20039;-64
2021/12/03 04:12:54;;;;;;;64.65;32.90;;;1.50;99.90;;;;;;5087157;28;20031;-64
2021/12/03 04:15:20;;;;;;;63.42;33.25;;;1.50;99.90;;;;;;5074780;28;20068;-64
2021/12/03 04:17:47;;;;;;;68.55;33.53;;;1.50;99.90;;;;;;5092753;28;20016;-64
2021/12/03 04:20:15;;;;;;;68.00;35.03;;;1.50;99.90;;;;;;5092723;28;20016;-64
2021/12/03 04:22:42;;;;;;;72.00;34.10;;;1.50;99.90;;;;;;5092772;28;20031;-64
2021/12/03 04:25:12;;;;;;;76.55;34.80;;;1.50;99.90;;;;;;5074724;28;20103;-64
2021/12/03 04:27:38;;;;;;;;;;;1.50;99.90;;;;;;5093618;28;20020;-65
2021/12/03 04:30:07;;;;;;;75.70;34.55;;;1.50;99.90;;;;;;5092827;28;20321;-64
2021/12/03 04:32:32;;;;;;;81.13;38.20;;;1.50;99.90;;;;;;5092385;28;20035;-64
2021/12/03 04:34:58;;;;;;;82.75;36.78;;;1.50;99.90;;;;;;5092839;28;20024;-64
2021/12/03 04:37:25;;;;;;;82.22;36.88;;;1.50;99.90;;;;;;5092687;28;20395;-64
2021/12/03 04:39:51;;;;;;;89.00;38.45;;;1.60;99.90;;;;;;5074763;28;20024;-65
2021/12/03 04:42:17;;;;;;;85.00;37.08;;;1.60;99.90;;;;;;5092765;28;20522;-65
2021/12/03 04:44:44;;;;;;;90.97;39.38;;;1.60;99.90;;;;;;5074448;28;20028;-65
2021/12/03 04:47:10;;;;;;;92.65;41.83;;;1.60;99.90;;;;;;5092346;28;20024;-65
2021/12/03 04:49:36;;;;;;;78.40;39.17;;;1.70;99.90;;;;;;5092595;28;20028;-64
2021/12/03 04:52:02;;;;;;;91.20;40.70;;;1.70;99.90;;;;;;5092680;28;20077;-65
2021/12/03 04:54:27;;;;;;;88.78;40.90;;;1.70;99.90;;;;;;5074457;28;20070;-64
2021/12/03 04:56:55;;;;;;;92.03;42.17;;;1.70;99.90;;;;;;5074379;28;20055;-65
2021/12/03 04:59:21;;;;;;;94.55;42.28;;;1.70;99.90;;;;;;5092549;28;20047;-64
2021/12/03 05:01:46;;;;;;;77.93;38.13;;;1.70;99.90;;;;;;5092370;28;20020;-65
2021/12/03 05:04:12;;;;;;;81.40;39.72;;;1.70;99.90;;;;;;5095903;28;20373;-65
2021/12/03 05:07:05;;;;;;;88.50;41.30;;;1.70;99.90;;;;;;5078222;28;20032;-64
2021/12/03 05:09:31;;;;;;;77.75;40.58;;;1.70;99.90;;;;;;5096359;28;20472;-64
2021/12/03 05:11:57;;;;;;;79.55;40.55;;;1.70;99.90;;;;;;5096379;28;20467;-64
2021/12/03 05:14:22;;;;;;;79.32;40.35;;;1.70;99.90;;;;;;5096099;28;20025;-64
2021/12/03 05:16:48;;;;;;;81.00;39.05;;;1.70;99.90;;;;;;5096128;28;20024;-65
2021/12/03 05:19:17;;;;;;;80.43;40.78;;;1.70;99.90;;;;;;5096070;28;20475;-64
2021/12/03 05:21:43;;;;;;;80.00;40.88;;;1.70;99.90;;;;;;5077937;28;20107;-64
2021/12/03 05:24:09;;;;;;;77.10;39.20;;;1.70;99.90;;;;;;5077910;28;20020;-65
2021/12/03 05:26:37;;;;;;;90.57;42.60;;;1.70;99.90;;;;;;5096048;28;20387;-65
2021/12/03 05:29:04;;;;;;;85.60;42.38;;;1.70;99.90;;;;;;5077870;28;20046;-64
2021/12/03 05:31:30;;;;;;;80.22;40.75;;;1.80;99.90;;;;;;5095916;28;20488;-64
2021/12/03 05:33:55;;;;;;;87.30;41.47;;;1.80;99.90;;;;;;5095801;28;20035;-64
2021/12/03 05:36:21;;;;;;;91.90;42.88;;;1.80;99.90;;;;;;5095820;28;20126;-64
2021/12/03 05:38:46;;;;;;;91.95;43.90;;;1.90;99.90;;;;;;5077692;28;20089;-64
2021/12/03 05:41:12;;;;;;;87.88;41.90;;;1.90;99.90;;;;;;5095752;28;20016;-64
2021/12/03 05:43:37;;;;;;;96.90;44.28;;;1.90;99.90;;;;;;5095523;28;20099;-65
2021/12/03 05:46:03;;;;;;;95.75;44.20;;;1.90;99.90;;;;;;5095689;28;20369;-64
2021/12/03 05:48:28;;;;;;;82.07;39.50;;;2.00;99.90;;;;;;5095513;28;20028;-64
2021/12/03 05:50:54;;;;;;;94.30;40.15;;;2.00;99.90;;;;;;5077503;28;20548;-65
2021/12/03 05:53:20;;;;;;;85.32;40.10;;;2.00;99.90;;;;;;5077373;28;20119;-64
2021/12/03 05:55:45;;;;;;;89.20;40.22;;;2.00;99.90;;;;;;5095388;28;20032;-64
2021/12/03 05:58:11;;;;;;;87.43;40.03;;;2.10;99.90;;;;;;5094760;28;20499;-64
2021/12/03 06:00:39;;;;;;;82.40;39.78;;;2.10;99.90;;;;;;5094790;28;20134;-65
2021/12/03 06:03:05;;;;;;;88.60;41.65;;;2.10;99.90;;;;;;5094583;28;20012;-64
2021/12/03 06:05:34;;;;;;;77.00;37.85;;;2.10;99.90;;;;;;5094941;28;20036;-65
2021/12/03 06:08:00;;;;;;;79.75;38.30;;;2.20;99.90;;;;;;5077100;28;20062;-64
2021/12/03 06:10:26;;;;;;;73.32;35.38;;;2.20;99.90;;;;;;5095117;28;20062;-65
2021/12/03 06:12:53;;;;;;;74.57;34.65;;;2.20;99.90;;;;;;5095159;28;20069;-64
2021/12/03 06:15:19;;;;;;;66.30;34.55;;;2.20;99.90;;;;;;5093589;28;20077;-65
2021/12/03 06:17:45;;;;;;;68.30;33.80;;;2.30;99.90;;;;;;5094967;28;20114;-65
2021/12/03 06:20:12;;;;;;;69.15;32.53;;;2.30;99.90;;;;;;5094845;28;20034;-64
2021/12/03 06:22:39;;;;;;;65.63;33.58;;;2.40;99.90;;;;;;5095103;28;20034;-64
2021/12/03 06:25:05;;;;;;;62.95;32.22;;;2.30;99.90;;;;;;5076641;28;20023;-65
2021/12/03 06:27:31;;;;;;;61.80;31.08;;;2.30;99.90;;;;;;5076825;28;20387;-65
2021/12/03 06:29:58;;;;;;;62.70;31.33;;;2.30;99.90;;;;;;5094931;28;20099;-64
2021/12/03 06:32:24;;;;;;;59.00;30.30;;;2.40;99.90;;;;;;5094744;28;20051;-65
2021/12/03 06:34:52;;;;;;;56.53;28.55;;;2.40;99.90;;;;;;5094593;28;20098;-65
2021/12/03 06:37:17;;;;;;;56.35;28.98;;;2.40;99.90;;;;;;5094749;28;20020;-64
2021/12/03 06:39:43;;;;;;;49.95;26.80;;;2.40;99.90;;;;;;5094586;28;20039;-65
2021/12/03 06:42:09;;;;;;;50.30;26.27;;;2.40;99.90;;;;;;5076509;28;20387;-65
2021/12/03 06:44:35;;;;;;;46.50;24.80;;;2.40;99.90;;;;;;5094464;28;20072;-65
2021/12/03 06:47:02;;;;;;;45.65;23.23;;;2.40;99.90;;;;;;5094520;28;20024;-65
2021/12/03 06:49:29;;;;;;;41.60;22.20;;;2.40;99.90;;;;;;5076472;28;20021;-65
2021/12/03 06:52:00;;;;;;;41.28;21.60;;;2.50;99.90;;;;;;5094316;28;20049;-65
2021/12/03 06:54:29;;;;;;;39.60;20.80;;;2.40;99.90;;;;;;5076142;28;20127;-65
2021/12/03 06:56:55;;;;;;;34.90;19.30;;;2.50;99.90;;;;;;5069036;28;20063;-65
2021/12/03 06:59:23;;;;;;;44.70;19.20;;;2.50;99.90;;;;;;5076108;28;20068;-65
2021/12/03 07:01:50;;;;;;;38.25;18.10;;;2.50;99.90;;;;;;5094265;28;20032;-65
2021/12/03 07:04:16;;;;;;;30.90;15.68;;;2.50;99.90;;;;;;5094016;28;20056;-65
2021/12/03 07:06:42;;;;;;;32.33;15.95;;;2.50;99.90;;;;;;5075604;28;20024;-65
2021/12/03 07:09:08;;;;;;;31.25;14.68;;;2.50;99.90;;;;;;5094088;28;20024;-65
2021/12/03 07:11:33;;;;;;;29.55;13.48;;;2.50;99.90;;;;;;5094027;28;20012;-66
2021/12/03 07:13:59;;;;;;;31.38;12.23;;;2.60;99.90;;;;;;5075931;28;20547;-65
2021/12/03 07:16:25;;;;;;;23.95;11.48;;;2.60;99.90;;;;;;5092744;28;20426;-66
2021/12/03 07:18:51;;;;;;;27.20;11.43;;;2.60;99.90;;;;;;5093910;28;20025;-66
2021/12/03 07:21:16;;;;;;;24.23;11.07;;;2.60;99.90;;;;;;5093625;28;20028;-66
2021/12/03 07:23:42;;;;;;;20.90;9.45;;;2.60;99.90;;;;;;5074726;28;20024;-66
2021/12/03 07:26:08;;;;;;;23.00;10.40;;;2.60;99.90;;;;;;5090330;28;20016;-66
2021/12/03 07:28:34;;;;;;;19.85;8.52;;;2.60;99.90;;;;;;5084543;28;20024;-66
2021/12/03 07:30:59;;;;;;;14.02;6.93;;;2.60;99.90;;;;;;5092114;28;20024;-66
2021/12/03 07:33:28;;;;;;;18.27;7.70;;;2.60;99.90;;;;;;5091935;28;20044;-66
2021/12/03 07:35:54;;;;;;;18.48;7.45;;;2.60;99.90;;;;;;5071095;28;20024;-65
2021/12/03 07:38:19;;;;;;;20.75;7.05;;;2.60;99.90;;;;;;5073782;28;20128;-66
2021/12/03 07:40:47;;;;;;;19.25;7.03;;;2.60;99.90;;;;;;5092234;28;20028;-66
2021/12/03 07:43:12;;;;;;;15.48;6.55;;;2.60;99.90;;;;;;5086515;28;20106;-66
2021/12/03 07:45:38;;;;;;;17.60;5.70;;;2.60;99.90;;;;;;5091702;28;20060;-66
2021/12/03 07:48:06;;;;;;;17.15;6.30;;;2.70;99.90;;;;;;5089032;28;20076;-66
2021/12/03 07:50:34;;;;;;;16.98;5.93;;;2.60;99.90;;;;;;5089325;28;20024;-66
2021/12/03 07:53:04;;;;;;;14.68;5.65;;;2.70;99.90;;;;;;5067902;28;20028;-66
2021/12/03 07:55:29;;;;;;;18.05;5.93;;;2.70;99.90;;;;;;5088653;28;20012;-66
2021/12/03 07:57:55;;;;;;;18.08;4.82;;;2.70;99.90;;;;;;5091689;28;20026;-66
2021/12/03 08:00:21;;;;;;;14.75;5.43;;;2.70;99.90;;;;;;5067866;28;20146;-66
2021/12/03 08:02:47;;;;;;;14.13;5.25;;;2.70;99.90;;;;;;5070815;28;20036;-66
2021/12/03 08:05:12;;;;;;;18.13;6.05;;;2.70;99.90;;;;;;5088243;28;20094;-66
2021/12/03 08:07:39;;;;;;;14.57;5.53;;;2.70;99.90;;;;;;5073151;28;20030;-66
2021/12/03 08:10:06;;;;;;;12.40;4.75;;;2.70;99.90;;;;;;5092764;28;20020;-66
2021/12/03 08:12:32;;;;;;;15.20;5.30;;;2.70;99.90;;;;;;5089011;28;20085;-67
2021/12/03 08:14:57;;;;;;;19.63;5.05;;;2.70;99.90;;;;;;5091941;28;20016;-67
2021/12/03 08:17:23;;;;;;;11.13;5.28;;;2.70;99.90;;;;;;5085545;28;20492;-66
2021/12/03 08:19:58;;;;;;;17.25;5.50;;;2.70;99.90;;;;;;5072598;28;20361;-66
2021/12/03 08:22:23;;;;;;;13.65;4.55;;;2.70;99.90;;;;;;5072538;28;20055;-66
2021/12/03 08:24:58;;;;;;;16.15;4.35;;;2.70;99.90;;;;;;5052491;28;20064;-66
2021/12/03 08:27:56;;;;;;;16.98;5.28;;;2.80;99.90;;;;;;5081025;28;20593;-66
2021/12/03 08:30:22;;;;;;;14.13;3.92;;;2.80;99.90;;;;;;5084621;28;20040;-67
2021/12/03 08:32:48;;;;;;;14.65;4.70;;;2.80;99.90;;;;;;5074579;28;20491;-66
2021/12/03 08:35:14;;;;;;;14.20;5.18;;;2.80;99.90;;;;;;5074423;28;20020;-66
2021/12/03 08:37:45;;;;;;;11.52;4.75;;;2.80;99.90;;;;;;5093930;28;20024;-66
2021/12/03 08:40:11;;;;;;;18.25;4.60;;;2.80;99.90;;;;;;5078630;28;20103;-67
2021/12/03 08:42:36;;;;;;;10.25;4.65;;;2.80;99.90;;;;;;5096828;28;20024;-66
2021/12/03 08:45:04;;;;;;;13.18;4.65;;;2.80;99.90;;;;;;5096660;28;20039;-66
2021/12/03 08:47:30;;;;;;;19.20;5.75;;;2.80;99.90;;;;;;5078220;28;20028;-67
2021/12/03 08:49:56;;;;;;;14.27;5.18;;;2.90;99.90;;;;;;5095716;28;20027;-67
2021/12/03 08:55:19;;;;;;;16.42;5.68;;;2.90;99.90;;;;;;5097017;28;20061;-66
2021/12/03 09:01:08;;;;;;;16.70;5.70;;;2.80;99.90;;;;;;5089247;28;20020;-66
2021/12/03 09:03:34;;;;;;;14.00;5.03;;;2.90;99.90;;;;;;5093695;28;20122;-66
2021/12/03 09:06:10;;;;;;;18.98;7.10;;;2.90;99.90;;;;;;5075401;28;20107;-66
2021/12/03 09:08:59;;;;;;;16.75;5.05;;;2.90;99.90;;;;;;5092221;28;20081;-66
2021/12/03 09:11:26;;;;;;;21.15;4.80;;;2.90;99.90;;;;;;5094084;28;20054;-66
2021/12/03 09:13:52;;;;;;;16.50;5.10;;;2.90;99.90;;;;;;5084767;28;20015;-67
2021/12/03 09:16:20;;;;;;;15.20;5.35;;;2.90;99.90;;;;;;5090182;28;20107;-65
2021/12/03 09:18:47;;;;;;;15.02;4.35;;;3.00;99.90;;;;;;5113314;28;20024;-66
2021/12/03 09:21:24;;;;;;;20.95;5.28;;;3.00;99.90;;;;;;5080951;28;20076;-65
2021/12/03 09:26:56;;;;;;;18.00;6.60;;;3.00;99.90;;;;;;5108551;28;20035;-66
2021/12/03 09:29:30;;;;;;;15.20;4.63;;;3.10;99.90;;;;;;5081154;28;20111;-65
2021/12/03 09:31:57;;;;;;;14.30;5.38;;;3.10;99.90;;;;;;5107831;28;20019;-66
2021/12/03 09:35:04;;;;;;;19.35;4.28;;;3.10;99.90;;;;;;5107309;28;20015;-66
2021/12/03 09:37:30;;;;;;;17.55;4.60;;;3.10;99.90;;;;;;5083835;28;20028;-66
2021/12/03 09:40:01;;;;;;;25.08;5.28;;;3.10;99.90;;;;;;5107211;28;20016;-66
2021/12/03 09:42:27;;;;;;;16.45;4.90;;;3.20;99.90;;;;;;5107984;28;20019;-66
2021/12/03 09:44:53;;;;;;;13.27;3.70;;;3.20;99.90;;;;;;5081263;28;20024;-66
2021/12/03 09:47:19;;;;;;;22.70;5.38;;;3.20;99.90;;;;;;5096841;28;20020;-66
2021/12/03 09:49:50;;;;;;;12.43;3.45;;;3.20;99.90;;;;;;5101270;28;20012;-66
2021/12/03 09:52:22;;;;;;;11.50;3.35;;;3.30;99.90;;;;;;5104713;28;20027;-66
2021/12/03 09:54:54;;;;;;;12.55;4.18;;;3.30;99.90;;;;;;5092123;28;20375;-66
2021/12/03 09:57:31;;;;;;;15.80;4.18;;;3.30;99.90;;;;;;5078062;28;20038;-66
2021/12/03 10:03:01;;;;;;;14.32;4.18;;;3.30;99.90;;;;;;5101743;28;20052;-66
2021/12/03 10:14:43;;;;;;;15.55;4.10;;;3.40;99.80;;;;;;5094781;28;20027;-66
2021/12/03 10:20:21;;;;;;;18.55;4.53;;;3.50;99.90;;;;;;5106538;28;20078;-66
2021/12/03 10:36:24;;;;;;;16.92;4.35;;;3.60;99.90;;;;;;5105577;28;20488;-66
2021/12/03 10:41:48;;;;;;;15.75;4.72;;;3.60;99.90;;;;;;5081506;28;20106;-66
2021/12/03 10:44:30;;;;;;;16.45;5.28;;;3.60;99.90;;;;;;5103729;28;20483;-66
2021/12/03 11:27:57;;;;;;;15.90;4.30;;;4.00;99.90;;;;;;5011202;28;20104;-66
2021/12/03 11:43:09;;;;;;;15.35;4.70;;;4.20;99.90;;;;;;5100980;28;20103;-66
2021/12/03 11:58:01;;;;;;;14.30;4.43;;;4.30;99.90;;;;;;5096648;28;20059;-66
2021/12/03 12:08:12;;;;;;;15.90;5.88;;;4.50;99.50;;;;;;5055128;28;20132;-66
2021/12/03 12:16:05;;;;;;;14.30;4.40;;;4.60;99.40;;;;;;5062637;28;20032;-66
2021/12/03 12:41:07;;;;;;;8.65;3.55;;;5.00;97.60;;;;;;5082414;28;20074;-67
2021/12/03 12:56:16;;;;;;;10.48;3.33;;;5.00;97.20;;;;;;5087963;28;20028;-66
2021/12/03 13:09:25;;;;;;;7.80;3.58;;;5.10;96.50;;;;;;5083959;28;20036;-67
2021/12/03 13:37:42;;;;;;;8.10;2.80;;;5.10;96.30;;;;;;5038001;28;20119;-67
2021/12/03 13:40:21;;;;;;;6.28;2.90;;;5.10;96.30;;;;;;5086512;28;20017;-67
2021/12/03 13:44:29;;;;;;;7.35;2.30;;;5.10;96.30;;;;;;5089724;28;20502;-67
2021/12/03 14:15:56;;;;;;;5.22;2.80;;;4.90;98.10;;;;;;5098715;28;20020;-67
2021/12/03 14:25:07;;;;;;;8.60;3.15;;;4.80;99.20;;;;;;5094822;28;20032;-68
2021/12/03 14:40:09;;;;;;;6.63;2.50;;;4.50;99.90;;;;;;5104319;28;20016;-67
2021/12/03 14:45:34;;;;;;;5.13;2.77;;;4.50;99.90;;;;;;5091609;28;20023;-67
2021/12/03 14:48:23;;;;;;;4.43;2.25;;;4.50;99.90;;;;;;5096564;28;20024;-67
2021/12/03 14:51:03;;;;;;;4.57;2.70;;;4.50;99.90;;;;;;5072790;28;20044;-67
2021/12/03 14:56:16;;;;;;;7.97;3.10;;;4.50;99.90;;;;;;5093359;28;20028;-67
2021/12/03 15:01:20;;;;;;;5.55;2.85;;;4.50;99.90;;;;;;5094957;28;20017;-67
2021/12/03 15:07:03;;;;;;;7.07;3.10;;;4.50;99.90;;;;;;5094013;28;20630;-67
2021/12/03 15:09:40;;;;;;;7.70;3.13;;;4.50;99.90;;;;;;5077500;28;20028;-67
2021/12/03 15:20:23;;;;;;;6.22;2.65;;;4.30;99.90;;;;;;5107228;28;20047;-66
2021/12/03 15:36:48;;;;;;;8.00;3.67;;;4.10;99.90;;;;;;5087592;28;20024;-67
2021/12/03 15:39:40;;;;;;;5.63;3.40;;;4.10;99.90;;;;;;5075194;28;20392;-67
2021/12/03 15:54:32;;;;;;;10.02;3.70;;;4.00;99.90;;;;;;5088282;28;20028;-67
2021/12/03 16:11:05;;;;;;;7.85;4.68;;;4.10;99.90;;;;;;5089277;28;20077;-67
2021/12/03 16:19:53;;;;;;;7.85;4.90;;;4.10;99.90;;;;;;5080382;28;20368;-67
2021/12/03 16:47:18;;;;;;;6.57;5.15;;;4.20;99.90;;;;;;5089961;28;20028;-67
2021/12/03 16:53:02;;;;;;;6.78;5.03;;;4.20;99.90;;;;;;5101684;28;20067;-67
2021/12/03 16:55:28;;;;;;;5.57;4.75;;;4.20;99.90;;;;;;5071479;28;20040;-67
2021/12/03 17:58:27;;;;;;;6.38;5.78;;;4.30;99.90;;;;;;5103863;28;20032;-66
2021/12/03 18:01:02;;;;;;;6.57;4.95;;;4.30;99.90;;;;;;5111132;28;20016;-66
2021/12/03 18:14:56;;;;;;;5.47;4.97;;;4.30;99.90;;;;;;5089502;28;20020;-67
2021/12/03 18:55:46;;;;;;;6.13;5.55;;;4.50;99.90;;;;;;5108521;28;20483;-66
2021/12/03 18:58:12;;;;;;;5.38;4.88;;;4.50;99.90;;;;;;5093292;28;20050;-66
2021/12/03 19:00:42;;;;;;;5.78;5.28;;;4.50;99.90;;;;;;5093708;28;20531;-67
2021/12/03 19:08:45;;;;;;;5.95;5.38;;;4.60;99.90;;;;;;5107704;28;20031;-67
2021/12/03 19:11:35;;;;;;;5.82;5.22;;;4.60;99.90;;;;;;5110581;28;20047;-67
2021/12/03 19:13:57;;;;;;;6.28;5.72;;;4.60;99.90;;;;;;5088648;28;20036;-66
2021/12/03 19:16:25;;;;;;;5.50;5.00;;;4.60;99.90;;;;;;5100399;28;20044;-66
2021/12/03 19:18:53;;;;;;;7.00;6.30;;;4.60;99.90;;;;;;5090778;28;20035;-67
2021/12/03 19:21:25;;;;;;;6.82;6.25;;;4.60;99.90;;;;;;5077954;28;20098;-66
2021/12/03 19:23:58;;;;;;;6.57;5.97;;;4.60;99.90;;;;;;5086784;28;20030;-67
2021/12/03 19:26:44;;;;;;;;;;;;;;;;;;;;;
2021/12/03 19:29:20;;;;;;;7.68;5.90;;;4.60;99.90;;;;;;5109978;28;20024;-67
2021/12/03 19:31:51;;;;;;;6.70;6.10;;;4.70;99.90;;;;;;5099908;28;20153;-67
2021/12/03 19:34:18;;;;;;;7.03;6.32;;;4.60;99.90;;;;;;5084228;28;20032;-67
2021/12/03 19:36:44;;;;;;;6.90;6.18;;;4.60;99.90;;;;;;5107678;28;20406;-67
2021/12/03 19:39:13;;;;;;;7.20;6.55;;;4.60;99.90;;;;;;5079135;28;20035;-67
2021/12/03 19:44:12;;;;;;;7.88;7.18;;;4.60;99.90;;;;;;5102737;28;20012;-67
2021/12/03 19:46:41;;;;;;;6.72;6.05;;;4.60;99.90;;;;;;5099353;28;20024;-67
2021/12/03 19:49:19;;;;;;;8.10;6.38;;;4.60;99.90;;;;;;5094089;28;20016;-67
2021/12/03 19:51:47;;;;;;;6.85;6.25;;;4.50;99.90;;;;;;5106586;28;20031;-66
2021/12/03 19:54:14;;;;;;;7.32;6.32;;;4.50;99.90;;;;;;5102824;28;20127;-66
2021/12/03 19:56:40;;;;;;;7.03;6.32;;;4.50;99.90;;;;;;5080579;28;20115;-66
2021/12/03 19:59:08;;;;;;;6.78;6.13;;;4.50;99.90;;;;;;5091338;28;20103;-67
2021/12/03 20:01:35;;;;;;;7.47;6.78;;;4.50;99.90;;;;;;5097595;28;20043;-66
2021/12/03 20:04:01;;;;;;;7.07;6.38;;;4.50;99.90;;;;;;5103692;28;20107;-67
2021/12/03 20:06:27;;;;;;;7.65;6.85;;;4.50;99.90;;;;;;5086892;28;20444;-66
2021/12/03 20:08:56;;;;;;;7.00;6.38;;;4.50;99.90;;;;;;5096384;28;20106;-67
2021/12/03 20:11:26;;;;;;;6.75;6.03;;;4.50;99.90;;;;;;5109225;28;20069;-66
2021/12/03 20:13:54;;;;;;;7.70;6.78;;;4.50;99.90;;;;;;5099983;28;20024;-67
2021/12/03 20:16:33;;;;;;;7.57;6.68;;;4.50;99.90;;;;;;5101153;28;20503;-67
2021/12/03 20:19:10;;;;;;;6.80;6.20;;;4.50;99.90;;;;;;5090765;28;20026;-66
2021/12/03 20:21:39;;;;;;;7.05;6.35;;;4.50;99.90;;;;;;5097656;28;20467;-67
2021/12/03 20:27:01;;;;;;;7.45;6.75;;;4.50;99.90;;;;;;5092390;28;20043;-66
2021/12/03 20:32:34;;;;;;;8.77;7.88;;;4.40;99.90;;;;;;5102539;28;20028;-67